עמוד ראשי
METAR-TAF:

METAR-TAF

שדות תעופה :

Kōchi, יפן

קו רוחב: 33-32N, קו אורך: 133-40E, גובה: 7מטר

תצפית מזג אוויר נוכחית

הדו"ח נערך לפני 1 שעות ו 19דקות, בשעה 02:00 UTC
רוח 8קשר מכיוון דרום, משתנה בין דרום-מזרח ו דרום/דרום-מערב
טמפרטורת 31 צלסיוס
לחות 79%
לחץ 1011 hPa
ראות 10 קילומטר או יותר
מעט עננים בגובה 1500רגל

METAR: RJOK 210200Z 18008KT 140V200 9999 FEW015 31/27 Q1011

זמן: 12:19 (03:19 UTC)

תחזית

הדו"ח נערך לפני 4 שעות ו 14דקות, בשעה 23:05 UTC
תחזית בתוקף מ 21 ב 00 UTC עד 22 ב 06 UTC
רוח 7קשר מכיוון דרום
ראות 10 קילומטר או יותר
מעט עננים בגובה 1500רגל
עננים פזורים בגובה 4000רגל
זמנית מ -
21 ב 03 UTC עד 21 ב 09 UTC
מעט עננים בגובה 1000רגל
מעט עננים בגובה 2000רגל , קומולונימבוס.
עננים פזורים בגובה 2500רגל
סופת רעמים
יעשה מ
21 ב 10 UTC עד 21 ב 12 UTC
רוח 5קשר מכיוון צפון
יעשה מ
21 ב 21 UTC עד 22 ב 00 UTC
רוח 5קשר מכיוון דרום

TAF: RJOK 202305Z 2100/2206 17007KT 9999 FEW015 SCT040 TEMPO 2103/2109 TS FEW010 FEW020CB SCT025 BECMG 2110/2112 35005KT BECMG 2121/2200 17005KT

תצפיות ותחזיות מזג אוויר לגבי יותר מ- 4,000 שדות תעופה ברחבי העולם. דוחות METAR ו- TAF.

התחנות הזמינות מסומנות בנקודות צהובות ואדומות על גבי המפה.

העבר את העכבר לנקודה הצבעונית על מנת לראות את שם התחנה.

לאחר מכן, לחץ כדי לראות את תוכן ואת תחזיות מזג האוויר.

כדי לשנות את המפה: לחץ על הכפתורים הירוקים עם הפלוס השחור כדי להתקרב; על הכפתור הירוק עם המקף כדי להתרחק; או בחיצים הירוקים למפות סמוכות.


METAR-TAF: